Time;durP1;ratioP1;P1;durP2;ratioP2;P2;SDS_P1;SDS_P2;PMS_P1;PMS_P2;Temp;Humidity;BMP_temperature;BMP_pressure;BME280_temperature;BME280_humidity;BME280_pressure;Samples;Min_cycle;Max_cycle;Signal;HPM_P1;HPM_P2
2022/04/17 00:00:26;;;;;;;8.55;3.72;;;;;;;;;;5045960;28;20037;-64
2022/04/17 00:02:53;;;;;;;8.63;4.10;;;;;;;;;;5048005;28;20052;-64
2022/04/17 00:05:19;;;;;;;7.43;4.43;;;;;;;;;;5045531;28;20060;-64
2022/04/17 00:07:45;;;;;;;6.35;3.85;;;;;;;;;;5044662;28;20107;-64
2022/04/17 00:10:12;;;;;;;7.35;4.10;;;;;;;;;;5046854;28;20032;-64
2022/04/17 00:12:40;;;;;;;8.00;4.45;;;;;;;;;;5048218;28;20178;-64
2022/04/17 00:15:06;;;;;;;7.68;3.83;;;;;;;;;;5048105;28;20110;-64
2022/04/17 00:17:33;;;;;;;8.13;4.30;;;;;;;;;;5046766;28;20060;-64
2022/04/17 00:19:59;;;;;;;8.07;4.13;;;;;;;;;;5048005;28;20396;-64
2022/04/17 00:22:26;;;;;;;8.60;4.10;;;;;;;;;;5045231;28;20048;-64
2022/04/17 00:24:52;;;;;;;7.65;3.92;;;;;;;;;;5048308;28;20139;-64
2022/04/17 00:27:18;;;;;;;6.63;4.00;;;;;;;;;;5045332;28;20151;-64
2022/04/17 00:29:45;;;;;;;6.70;3.97;;;;;;;;;;5044439;28;20444;-64
2022/04/17 00:32:11;;;;;;;6.00;4.05;;;;;;;;;;5047432;28;20029;-64
2022/04/17 00:34:37;;;;;;;8.85;4.18;;;;;;;;;;5048066;28;20465;-64
2022/04/17 00:37:04;;;;;;;8.57;3.80;;;;;;;;;;5057283;28;20057;-64
2022/04/17 00:39:31;;;;;;;9.45;4.25;;;;;;;;;;5048779;28;20083;-64
2022/04/17 00:41:59;;;;;;;12.13;4.38;;;;;;;;;;5067590;28;20040;-64
2022/04/17 00:44:26;;;;;;;7.40;4.30;;;;;;;;;;5068471;28;20040;-64
2022/04/17 00:46:52;;;;;;;8.15;4.63;;;;;;;;;;5067407;28;20045;-64
2022/04/17 00:49:18;;;;;;;6.80;4.00;;;;;;;;;;5037533;28;20041;-64
2022/04/17 00:51:46;;;;;;;7.25;4.32;;;;;;;;;;5069600;28;20045;-64
2022/04/17 00:54:13;;;;;;;7.40;4.15;;;;;;;;;;5069368;28;20418;-64
2022/04/17 00:56:39;;;;;;;6.95;4.47;;;;;;;;;;5040063;28;20052;-64
2022/04/17 00:59:09;;;;;;;8.65;4.03;;;;;;;;;;5067503;28;20094;-64
2022/04/17 01:01:36;;;;;;;9.25;4.75;;;;;;;;;;5049771;28;20052;-64
2022/04/17 01:04:03;;;;;;;7.85;4.50;;;;;;;;;;5067512;28;20044;-64
2022/04/17 01:06:29;;;;;;;7.15;4.15;;;;;;;;;;5067764;28;20071;-64
2022/04/17 01:08:55;;;;;;;8.00;4.30;;;;;;;;;;5067504;28;20036;-64
2022/04/17 01:11:22;;;;;;;9.98;4.22;;;;;;;;;;5049700;28;20057;-64
2022/04/17 01:13:48;;;;;;;9.90;5.05;;;;;;;;;;5068834;28;20151;-64
2022/04/17 01:16:16;;;;;;;12.30;5.05;;;;;;;;;;5067709;28;20120;-64
2022/04/17 01:18:55;;;;;;;8.05;4.50;;;;;;;;;;5065290;28;20079;-64
2022/04/17 01:21:21;;;;;;;8.32;5.20;;;;;;;;;;5066531;28;20076;-65
2022/04/17 01:29:18;;;;;;;9.75;5.05;;;;;;;;;;5048105;28;20492;-64
2022/04/17 01:31:46;;;;;;;12.10;4.68;;;;;;;;;;5060090;28;20058;-64
2022/04/17 01:34:14;;;;;;;9.65;4.90;;;;;;;;;;5063939;28;20140;-64
2022/04/17 01:36:41;;;;;;;8.57;4.93;;;;;;;;;;5062612;28;20144;-64
2022/04/17 01:39:07;;;;;;;9.15;4.82;;;;;;;;;;5064837;28;20493;-64
2022/04/17 01:41:33;;;;;;;12.10;4.90;;;;;;;;;;5067342;28;20072;-64
2022/04/17 01:43:59;;;;;;;11.57;5.18;;;;;;;;;;5072437;28;20083;-64
2022/04/17 01:46:25;;;;;;;7.72;4.50;;;;;;;;;;5073823;28;20036;-63
2022/04/17 01:48:52;;;;;;;8.60;5.03;;;;;;;;;;5055069;28;20053;-64
2022/04/17 01:51:18;;;;;;;8.05;4.97;;;;;;;;;;5054968;28;20393;-64
2022/04/17 01:53:44;;;;;;;7.90;4.80;;;;;;;;;;5054048;28;20036;-64
2022/04/17 01:56:10;;;;;;;8.95;5.45;;;;;;;;;;5074564;28;20455;-64
2022/04/17 01:58:37;;;;;;;9.63;5.20;;;;;;;;;;5055015;28;20037;-64
2022/04/17 02:01:04;;;;;;;8.95;4.85;;;;;;;;;;5051389;28;20072;-64
2022/04/17 02:03:30;;;;;;;15.13;4.90;;;;;;;;;;5073863;28;20040;-64
2022/04/17 02:05:56;;;;;;;9.98;4.82;;;;;;;;;;5074119;28;20394;-64
2022/04/17 02:08:22;;;;;;;9.68;5.22;;;;;;;;;;5052810;28;20036;-64
2022/04/17 02:10:49;;;;;;;10.43;5.18;;;;;;;;;;5072276;28;20075;-64
2022/04/17 02:13:15;;;;;;;13.85;5.53;;;;;;;;;;5056217;28;20037;-64
2022/04/17 02:15:41;;;;;;;9.18;5.00;;;;;;;;;;5056473;28;20485;-64
2022/04/17 02:18:08;;;;;;;8.25;4.82;;;;;;;;;;5051473;28;20032;-64
2022/04/17 02:20:34;;;;;;;9.23;5.78;;;;;;;;;;5072545;28;20488;-64
2022/04/17 02:23:00;;;;;;;9.30;5.80;;;;;;;;;;5053240;28;20123;-64
2022/04/17 02:25:26;;;;;;;10.23;5.57;;;;;;;;;;5069184;28;20127;-64
2022/04/17 02:27:52;;;;;;;8.80;5.80;;;;;;;;;;5073506;28;20137;-64
2022/04/17 02:30:19;;;;;;;12.02;5.60;;;;;;;;;;5073957;28;20432;-64
2022/04/17 02:32:46;;;;;;;9.27;5.78;;;;;;;;;;5071967;28;20047;-64
2022/04/17 02:35:12;;;;;;;10.23;5.72;;;;;;;;;;5073146;28;20063;-64
2022/04/17 02:37:38;;;;;;;10.20;6.15;;;;;;;;;;5071978;28;20060;-64
2022/04/17 02:40:05;;;;;;;11.52;6.20;;;;;;;;;;5069747;28;20055;-64
2022/04/17 02:42:31;;;;;;;11.80;6.50;;;;;;;;;;5052620;28;20363;-64
2022/04/17 02:44:57;;;;;;;9.77;6.00;;;;;;;;;;5069264;28;20491;-64
2022/04/17 02:50:08;;;;;;;10.50;6.25;;;;;;;;;;5070659;28;20051;-64
2022/04/17 02:52:35;;;;;;;11.60;5.32;;;;;;;;;;5072996;28;20427;-64
2022/04/17 02:55:01;;;;;;;14.07;6.55;;;;;;;;;;5071771;28;20041;-64
2022/04/17 02:57:28;;;;;;;9.55;6.05;;;;;;;;;;5050556;28;20609;-63
2022/04/17 02:59:54;;;;;;;10.27;6.10;;;;;;;;;;5069422;28;20040;-64
2022/04/17 03:07:51;;;;;;;10.77;6.40;;;;;;;;;;5069816;28;20587;-64
2022/04/17 03:10:17;;;;;;;11.07;5.85;;;;;;;;;;5048856;28;20052;-64
2022/04/17 03:12:43;;;;;;;10.65;6.35;;;;;;;;;;5050057;28;20087;-64
2022/04/17 03:15:10;;;;;;;10.07;6.13;;;;;;;;;;5070793;28;20087;-64
2022/04/17 03:17:36;;;;;;;13.90;6.70;;;;;;;;;;5068008;28;20098;-64
2022/04/17 03:20:03;;;;;;;10.25;6.20;;;;;;;;;;5069061;28;20459;-63
2022/04/17 03:22:29;;;;;;;10.55;6.10;;;;;;;;;;5069044;28;20110;-64
2022/04/17 03:24:55;;;;;;;12.50;7.05;;;;;;;;;;5068183;28;20033;-64
2022/04/17 03:27:23;;;;;;;11.60;7.20;;;;;;;;;;5069569;28;20044;-64
2022/04/17 03:29:49;;;;;;;12.82;6.47;;;;;;;;;;5068632;28;20040;-63
2022/04/17 03:32:15;;;;;;;11.48;6.35;;;;;;;;;;5047951;28;20044;-64
2022/04/17 03:34:41;;;;;;;10.20;5.88;;;;;;;;;;5069157;28;20460;-64
2022/04/17 03:37:08;;;;;;;11.25;7.28;;;;;;;;;;5049833;28;20508;-64
2022/04/17 03:39:34;;;;;;;9.35;5.85;;;;;;;;;;5067846;28;20040;-64
2022/04/17 03:42:00;;;;;;;12.02;6.63;;;;;;;;;;5047150;28;20044;-64
2022/04/17 03:44:26;;;;;;;10.23;6.85;;;;;;;;;;5066381;28;20045;-64
2022/04/17 03:46:52;;;;;;;13.77;6.68;;;;;;;;;;5068900;28;20047;-64
2022/04/17 03:49:19;;;;;;;10.15;6.75;;;;;;;;;;5068902;28;20468;-63
2022/04/17 03:51:45;;;;;;;10.88;6.57;;;;;;;;;;5050261;28;20051;-63
2022/04/17 03:54:12;;;;;;;10.82;6.53;;;;;;;;;;5067415;28;20067;-63
2022/04/17 03:56:38;;;;;;;11.55;6.53;;;;;;;;;;5068811;28;20044;-63
2022/04/17 03:59:04;;;;;;;10.93;5.97;;;;;;;;;;5067293;28;20045;-64
2022/04/17 04:01:30;;;;;;;12.40;6.85;;;;;;;;;;5068891;28;20128;-63
2022/04/17 04:03:56;;;;;;;9.57;6.53;;;;;;;;;;5047464;28;20056;-63
2022/04/17 04:06:23;;;;;;;12.10;6.68;;;;;;;;;;5043513;28;20507;-64
2022/04/17 04:08:49;;;;;;;12.90;6.65;;;;;;;;;;5050584;28;20109;-63
2022/04/17 04:11:15;;;;;;;11.00;6.45;;;;;;;;;;5044353;28;20118;-63
2022/04/17 04:13:43;;;;;;;12.55;7.30;;;;;;;;;;5032243;28;20085;-64
2022/04/17 04:16:09;;;;;;;12.80;7.13;;;;;;;;;;5048062;28;20392;-63
2022/04/17 04:18:35;;;;;;;11.60;7.60;;;;;;;;;;5069855;28;20084;-63
2022/04/17 04:21:01;;;;;;;11.15;6.70;;;;;;;;;;5067140;28;20042;-63
2022/04/17 04:23:31;;;;;;;12.13;7.13;;;;;;;;;;5068392;28;20123;-63
2022/04/17 04:25:57;;;;;;;18.45;8.07;;;;;;;;;;5068919;28;20533;-63
2022/04/17 04:28:33;;;;;;;11.57;7.07;;;;;;;;;;5065579;28;20484;-63
2022/04/17 04:30:59;;;;;;;13.40;7.75;;;;;;;;;;5047755;28;20443;-63
2022/04/17 04:33:26;;;;;;;12.82;7.38;;;;;;;;;;5050308;28;20079;-63
2022/04/17 04:35:52;;;;;;;13.90;7.15;;;;;;;;;;5046566;28;20059;-64
2022/04/17 04:38:18;;;;;;;11.95;7.32;;;;;;;;;;5068224;28;20055;-63
2022/04/17 04:40:44;;;;;;;11.65;6.70;;;;;;;;;;5064126;28;20044;-63
2022/04/17 04:43:12;;;;;;;13.18;7.03;;;;;;;;;;5068322;28;20048;-62
2022/04/17 04:51:08;;;;;;;12.27;6.55;;;;;;;;;;5066279;28;20036;-63
2022/04/17 04:53:34;;;;;;;12.88;7.15;;;;;;;;;;5068272;28;20102;-63
2022/04/17 04:56:01;;;;;;;12.73;7.40;;;;;;;;;;5048069;28;20097;-62
2022/04/17 04:58:27;;;;;;;12.88;7.90;;;;;;;;;;5060992;28;20179;-63
2022/04/17 05:00:53;;;;;;;13.10;7.78;;;;;;;;;;5062437;28;20139;-63
2022/04/17 05:03:19;;;;;;;12.40;8.30;;;;;;;;;;5043787;28;20464;-63
2022/04/17 05:05:45;;;;;;;11.25;7.03;;;;;;;;;;5061958;28;20094;-63
2022/04/17 05:08:12;;;;;;;14.05;7.93;;;;;;;;;;5046724;28;20120;-64
2022/04/17 05:10:39;;;;;;;13.38;7.65;;;;;;;;;;5066510;28;20415;-64
2022/04/17 05:13:05;;;;;;;16.33;7.20;;;;;;;;;;5043470;28;20137;-64
2022/04/17 05:15:31;;;;;;;12.43;6.72;;;;;;;;;;5050801;28;20044;-64
2022/04/17 05:17:58;;;;;;;10.50;7.22;;;;;;;;;;5061937;28;20036;-65
2022/04/17 05:20:26;;;;;;;13.73;6.80;;;;;;;;;;5047231;28;20048;-64
2022/04/17 05:22:56;;;;;;;13.48;6.97;;;;;;;;;;5064896;28;20135;-63
2022/04/17 05:25:24;;;;;;;13.60;6.95;;;;;;;;;;5067446;28;20045;-64
2022/04/17 05:27:50;;;;;;;12.68;7.55;;;;;;;;;;5066274;28;20127;-63
2022/04/17 05:30:16;;;;;;;12.35;7.60;;;;;;;;;;5049815;28;20041;-64
2022/04/17 05:32:42;;;;;;;14.10;7.60;;;;;;;;;;5066278;28;20555;-64
2022/04/17 05:35:08;;;;;;;13.50;6.97;;;;;;;;;;5067050;28;20033;-64
2022/04/17 05:37:35;;;;;;;13.15;7.60;;;;;;;;;;5065528;28;20420;-63
2022/04/17 05:40:01;;;;;;;13.00;7.70;;;;;;;;;;5049317;28;20114;-64
2022/04/17 05:42:27;;;;;;;13.13;7.20;;;;;;;;;;5067106;28;20041;-63
2022/04/17 05:44:53;;;;;;;12.63;7.18;;;;;;;;;;5067028;28;20044;-64
2022/04/17 05:47:19;;;;;;;11.60;7.63;;;;;;;;;;5066009;28;20443;-63
2022/04/17 05:49:46;;;;;;;12.27;7.65;;;;;;;;;;5047202;28;20056;-64
2022/04/17 05:52:12;;;;;;;15.05;8.23;;;;;;;;;;5047369;28;20044;-63
2022/04/17 05:54:45;;;;;;;11.50;7.80;;;;;;;;;;5064160;28;20496;-64
2022/04/17 05:57:11;;;;;;;12.90;8.00;;;;;;;;;;5065006;28;20036;-63
2022/04/17 05:59:37;;;;;;;13.60;7.93;;;;;;;;;;5037461;28;20048;-64
2022/04/17 06:02:04;;;;;;;14.93;8.27;;;;;;;;;;5066016;28;20036;-64
2022/04/17 06:04:30;;;;;;;15.20;7.80;;;;;;;;;;5064574;28;20450;-63
2022/04/17 06:06:56;;;;;;;16.73;8.40;;;;;;;;;;5046986;28;20063;-63
2022/04/17 06:09:22;;;;;;;12.27;8.00;;;;;;;;;;5066543;28;20040;-64
2022/04/17 06:11:48;;;;;;;13.25;8.00;;;;;;;;;;5065729;28;20078;-63
2022/04/17 06:14:15;;;;;;;13.52;7.72;;;;;;;;;;5048538;28;20037;-64
2022/04/17 06:16:41;;;;;;;12.73;8.20;;;;;;;;;;5067390;28;20045;-63
2022/04/17 06:19:09;;;;;;;11.85;7.53;;;;;;;;;;5065560;28;20040;-64
2022/04/17 06:21:36;;;;;;;14.20;8.27;;;;;;;;;;5064375;28;20048;-64
2022/04/17 06:24:02;;;;;;;15.20;8.57;;;;;;;;;;5047663;28;20488;-64
2022/04/17 06:26:28;;;;;;;15.25;8.63;;;;;;;;;;5045221;28;20388;-64
2022/04/17 06:28:54;;;;;;;11.48;7.25;;;;;;;;;;5067503;28;20040;-63
2022/04/17 06:31:21;;;;;;;12.30;6.85;;;;;;;;;;5068244;28;20136;-64
2022/04/17 06:33:47;;;;;;;15.40;7.75;;;;;;;;;;5070312;28;20062;-64
2022/04/17 06:36:13;;;;;;;11.00;7.03;;;;;;;;;;5070274;28;20055;-64
2022/04/17 06:38:39;;;;;;;12.20;7.25;;;;;;;;;;5050290;28;20393;-64
2022/04/17 06:41:05;;;;;;;14.65;8.02;;;;;;;;;;5068213;28;20390;-64
2022/04/17 06:43:31;;;;;;;11.98;7.15;;;;;;;;;;5071139;28;20047;-64
2022/04/17 06:45:58;;;;;;;12.35;7.65;;;;;;;;;;5048860;28;20046;-63
2022/04/17 06:48:25;;;;;;;15.57;8.27;;;;;;;;;;5048787;28;20492;-64
2022/04/17 06:50:52;;;;;;;14.38;8.18;;;;;;;;;;5052176;28;20044;-64
2022/04/17 06:53:18;;;;;;;11.75;7.95;;;;;;;;;;5068626;28;20122;-64
2022/04/17 06:55:45;;;;;;;17.85;8.20;;;;;;;;;;5069799;28;20032;-64
2022/04/17 06:58:11;;;;;;;13.00;7.50;;;;;;;;;;5066972;28;20107;-64
2022/04/17 07:00:37;;;;;;;14.25;7.78;;;;;;;;;;5069522;28;20055;-64
2022/04/17 07:03:04;;;;;;;16.10;8.32;;;;;;;;;;5033178;28;20103;-64
2022/04/17 07:05:30;;;;;;;12.80;7.65;;;;;;;;;;5069537;28;20098;-64
2022/04/17 07:07:57;;;;;;;11.80;7.93;;;;;;;;;;5070798;28;20447;-64
2022/04/17 07:10:24;;;;;;;11.98;7.32;;;;;;;;;;5069210;28;20060;-64
2022/04/17 07:12:51;;;;;;;15.07;8.52;;;;;;;;;;5066335;28;20110;-65
2022/04/17 07:15:19;;;;;;;14.18;7.30;;;;;;;;;;5050973;28;20491;-64
2022/04/17 07:17:46;;;;;;;13.25;7.50;;;;;;;;;;5069237;28;20084;-64
2022/04/17 07:20:12;;;;;;;15.30;8.00;;;;;;;;;;5046695;28;20052;-64
2022/04/17 07:22:39;;;;;;;13.55;7.70;;;;;;;;;;5042796;28;20079;-64
2022/04/17 07:25:06;;;;;;;16.08;8.15;;;;;;;;;;5045843;28;20032;-64
2022/04/17 07:27:36;;;;;;;12.73;7.40;;;;;;;;;;5052248;28;20165;-65
2022/04/17 07:30:03;;;;;;;14.00;7.68;;;;;;;;;;5050669;28;20437;-64
2022/04/17 07:32:30;;;;;;;12.82;7.93;;;;;;;;;;5065926;28;20040;-64
2022/04/17 07:34:57;;;;;;;14.32;7.85;;;;;;;;;;5069607;28;20055;-64
2022/04/17 07:37:25;;;;;;;10.07;6.82;;;;;;;;;;5050428;28;20048;-65
2022/04/17 07:39:51;;;;;;;12.30;7.18;;;;;;;;;;5069957;28;20036;-64
2022/04/17 07:42:19;;;;;;;13.98;7.22;;;;;;;;;;5067142;28;20044;-64
2022/04/17 07:44:45;;;;;;;10.80;6.57;;;;;;;;;;5066688;28;20537;-65
2022/04/17 07:47:11;;;;;;;12.93;7.22;;;;;;;;;;5069197;28;20130;-65
2022/04/17 07:49:38;;;;;;;12.25;7.35;;;;;;;;;;5069891;28;20036;-65
2022/04/17 07:52:04;;;;;;;11.50;6.82;;;;;;;;;;5063907;28;20043;-65
2022/04/17 07:54:30;;;;;;;11.80;6.85;;;;;;;;;;5049939;28;20075;-64
2022/04/17 07:56:56;;;;;;;13.50;7.55;;;;;;;;;;5069011;28;20095;-65
2022/04/17 07:59:24;;;;;;;11.48;7.25;;;;;;;;;;5050435;28;20036;-64
2022/04/17 08:01:51;;;;;;;10.10;6.82;;;;;;;;;;5065241;28;20052;-65
2022/04/17 08:04:17;;;;;;;12.70;6.68;;;;;;;;;;5068602;28;20043;-64
2022/04/17 08:06:43;;;;;;;9.90;6.80;;;;;;;;;;5068433;28;20052;-65
2022/04/17 08:09:09;;;;;;;12.30;6.90;;;;;;;;;;5068480;28;20040;-65
2022/04/17 08:11:36;;;;;;;11.82;6.25;;;;;;;;;;5067582;28;20438;-65
2022/04/17 08:14:02;;;;;;;13.15;6.40;;;;;;;;;;5045609;28;20490;-65
2022/04/17 08:16:28;;;;;;;12.45;6.22;;;;;;;;;;5068859;28;20552;-65
2022/04/17 08:18:54;;;;;;;10.00;5.85;;;;;;;;;;5049580;28;20098;-65
2022/04/17 08:21:21;;;;;;;10.13;5.45;;;;;;;;;;5050823;28;20094;-65
2022/04/17 08:23:47;;;;;;;11.63;5.95;;;;;;;;;;5069002;28;20110;-65
2022/04/17 08:26:13;;;;;;;10.40;5.40;;;;;;;;;;5068672;28;20049;-65
2022/04/17 08:28:39;;;;;;;9.48;5.15;;;;;;;;;;5068995;28;20067;-65
2022/04/17 08:31:06;;;;;;;9.77;5.18;;;;;;;;;;5050251;28;20143;-65
2022/04/17 08:33:32;;;;;;;8.52;5.43;;;;;;;;;;5067917;28;20111;-65
2022/04/17 08:35:59;;;;;;;8.68;4.95;;;;;;;;;;5067675;28;20041;-65
2022/04/17 08:38:25;;;;;;;11.10;5.45;;;;;;;;;;5068821;28;20136;-65
2022/04/17 08:40:52;;;;;;;11.18;5.90;;;;;;;;;;5067655;28;20041;-65
2022/04/17 08:43:18;;;;;;;9.38;5.47;;;;;;;;;;5065172;28;20501;-65
2022/04/17 08:45:49;;;;;;;12.60;6.32;;;;;;;;;;5069238;28;20037;-65
2022/04/17 08:48:16;;;;;;;10.35;5.40;;;;;;;;;;5046633;28;20048;-65
2022/04/17 08:50:42;;;;;;;11.32;6.00;;;;;;;;;;5067871;28;20397;-65
2022/04/17 08:53:09;;;;;;;11.57;5.93;;;;;;;;;;5048681;28;20116;-65
2022/04/17 08:55:35;;;;;;;9.07;5.30;;;;;;;;;;5067785;28;20076;-65
2022/04/17 08:58:01;;;;;;;9.48;5.80;;;;;;;;;;5067446;28;20397;-65
2022/04/17 09:00:28;;;;;;;10.05;5.68;;;;;;;;;;5044719;28;20098;-65
2022/04/17 09:02:54;;;;;;;8.50;5.00;;;;;;;;;;5064562;28;20052;-64
2022/04/17 09:05:21;;;;;;;10.73;5.88;;;;;;;;;;5066725;28;20147;-64
2022/04/17 09:07:49;;;;;;;7.82;5.22;;;;;;;;;;5067478;28;20395;-65
2022/04/17 09:10:30;;;;;;;10.93;5.22;;;;;;;;;;5065626;28;20744;-65
2022/04/17 09:12:57;;;;;;;11.75;6.05;;;;;;;;;;5065329;28;20048;-65
2022/04/17 09:15:25;;;;;;;7.82;4.90;;;;;;;;;;5065165;28;20049;-65
2022/04/17 09:17:51;;;;;;;7.30;4.85;;;;;;;;;;5065399;28;20530;-65
2022/04/17 09:20:20;;;;;;;10.73;5.50;;;;;;;;;;5065295;28;20418;-65
2022/04/17 09:22:47;;;;;;;8.13;5.00;;;;;;;;;;5066081;28;20144;-65
2022/04/17 09:25:13;;;;;;;9.80;5.30;;;;;;;;;;5049286;28;20068;-65
2022/04/17 09:27:42;;;;;;;10.45;6.15;;;;;;;;;;5066650;28;20080;-65
2022/04/17 09:30:26;;;;;;;6.55;4.45;;;;;;;;;;5065759;28;20044;-65
2022/04/17 09:32:52;;;;;;;7.03;4.65;;;;;;;;;;5065754;28;20488;-65
2022/04/17 09:35:22;;;;;;;12.13;5.07;;;;;;;;;;5064870;28;20036;-65
2022/04/17 09:37:48;;;;;;;9.05;5.03;;;;;;;;;;5066100;28;20048;-65
2022/04/17 09:40:19;;;;;;;10.40;5.80;;;;;;;;;;5064845;28;20040;-65
2022/04/17 09:42:47;;;;;;;10.73;5.68;;;;;;;;;;5067638;28;20070;-65
2022/04/17 09:45:13;;;;;;;8.98;5.50;;;;;;;;;;5066733;28;20395;-65
2022/04/17 09:47:40;;;;;;;11.15;5.88;;;;;;;;;;5068042;28;20044;-65
2022/04/17 09:50:07;;;;;;;9.77;5.70;;;;;;;;;;5067194;28;20058;-65
2022/04/17 09:52:35;;;;;;;9.00;4.97;;;;;;;;;;5065480;28;20044;-65
2022/04/17 09:55:04;;;;;;;13.05;5.97;;;;;;;;;;5066373;28;20041;-65
2022/04/17 09:57:31;;;;;;;8.82;5.03;;;;;;;;;;5066637;28;20037;-65
2022/04/17 10:00:05;;;;;;;8.15;4.85;;;;;;;;;;5068360;28;20111;-65
2022/04/17 10:02:32;;;;;;;9.13;5.72;;;;;;;;;;5064694;28;20052;-65
2022/04/17 10:04:58;;;;;;;9.32;5.18;;;;;;;;;;5067328;28;20044;-65
2022/04/17 10:07:25;;;;;;;9.38;6.05;;;;;;;;;;5051448;28;20127;-65
2022/04/17 10:09:51;;;;;;;8.18;5.38;;;;;;;;;;5033878;28;20041;-65
2022/04/17 10:12:19;;;;;;;8.20;5.57;;;;;;;;;;5051162;28;20418;-65
2022/04/17 10:14:48;;;;;;;8.43;5.18;;;;;;;;;;5067027;28;20036;-64
2022/04/17 10:17:14;;;;;;;10.18;5.03;;;;;;;;;;5054351;28;20056;-64
2022/04/17 10:19:42;;;;;;;7.30;4.93;;;;;;;;;;5032699;28;20477;-64
2022/04/17 10:22:10;;;;;;;8.80;4.95;;;;;;;;;;5067850;28;20052;-64
2022/04/17 10:24:37;;;;;;;7.70;5.40;;;;;;;;;;5053132;28;20063;-64
2022/04/17 10:27:04;;;;;;;8.55;5.82;;;;;;;;;;5060798;28;20044;-64
2022/04/17 10:29:31;;;;;;;8.05;5.38;;;;;;;;;;5059474;28;20059;-64
2022/04/17 10:32:09;;;;;;;8.00;5.30;;;;;;;;;;5065966;28;20029;-64
2022/04/17 10:34:35;;;;;;;10.13;5.72;;;;;;;;;;5064401;28;20048;-64
2022/04/17 10:37:01;;;;;;;8.48;5.13;;;;;;;;;;5065807;28;20391;-64
2022/04/17 10:39:30;;;;;;;7.88;5.55;;;;;;;;;;5063153;28;20071;-65
2022/04/17 10:41:58;;;;;;;6.65;4.85;;;;;;;;;;5064860;28;20057;-64
2022/04/17 10:44:28;;;;;;;7.68;4.97;;;;;;;;;;5065407;28;20381;-64
2022/04/17 10:46:55;;;;;;;8.35;5.20;;;;;;;;;;5047958;28;20048;-64
2022/04/17 10:49:22;;;;;;;6.72;4.68;;;;;;;;;;5065675;28;20506;-64
2022/04/17 10:51:50;;;;;;;7.15;4.88;;;;;;;;;;5046151;28;20040;-64
2022/04/17 10:54:17;;;;;;;7.38;4.43;;;;;;;;;;5061944;28;20036;-64
2022/04/17 10:57:02;;;;;;;6.32;4.05;;;;;;;;;;5063445;28;20048;-64
2022/04/17 10:59:31;;;;;;;7.20;4.22;;;;;;;;;;5062332;28;20047;-64
2022/04/17 11:02:01;;;;;;;6.85;4.35;;;;;;;;;;5046795;28;20472;-66
2022/04/17 11:04:28;;;;;;;9.40;4.72;;;;;;;;;;5062356;28;20142;-65
2022/04/17 11:07:06;;;;;;;8.73;5.05;;;;;;;;;;5067510;28;20447;-65
2022/04/17 11:09:36;;;;;;;11.25;4.82;;;;;;;;;;5043637;28;20041;-65
2022/04/17 11:12:06;;;;;;;7.75;4.70;;;;;;;;;;5067159;28;20048;-74
2022/04/17 11:14:32;;;;;;;8.00;4.45;;;;;;;;;;5043814;28;20075;-65
2022/04/17 11:16:59;;;;;;;7.82;4.65;;;;;;;;;;5062885;28;20381;-65
2022/04/17 11:19:29;;;;;;;7.63;4.20;;;;;;;;;;5044648;28;20384;-65
2022/04/17 11:21:58;;;;;;;6.75;4.22;;;;;;;;;;5045857;28;20052;-65
2022/04/17 11:24:24;;;;;;;7.00;4.57;;;;;;;;;;5066195;28;20044;-65
2022/04/17 11:26:53;;;;;;;7.32;4.53;;;;;;;;;;5044070;28;20067;-65
2022/04/17 11:29:39;;;;;;;6.20;4.30;;;;;;;;;;5057350;28;20048;-65
2022/04/17 11:32:20;;;;;;;7.35;3.78;;;;;;;;;;5062213;28;20479;-64
2022/04/17 11:34:52;;;;;;;8.35;4.30;;;;;;;;;;5065992;28;20048;-65
2022/04/17 11:37:22;;;;;;;6.32;3.92;;;;;;;;;;5044721;28;20121;-65
2022/04/17 11:39:49;;;;;;;6.70;4.20;;;;;;;;;;5045414;28;20049;-65
2022/04/17 11:42:15;;;;;;;6.70;4.57;;;;;;;;;;5061944;28;20102;-65
2022/04/17 11:44:42;;;;;;;7.40;4.38;;;;;;;;;;5064550;28;20059;-65
2022/04/17 11:47:10;;;;;;;6.70;4.20;;;;;;;;;;5062004;28;20076;-65
2022/04/17 11:49:43;;;;;;;8.15;4.03;;;;;;;;;;5063563;28;20044;-65
2022/04/17 11:52:10;;;;;;;6.53;4.35;;;;;;;;;;5062566;28;20105;-65
2022/04/17 11:54:36;;;;;;;7.95;4.43;;;;;;;;;;5066545;28;20202;-65
2022/04/17 11:57:02;;;;;;;6.40;4.78;;;;;;;;;;5049479;28;20083;-65
2022/04/17 11:59:28;;;;;;;7.70;4.47;;;;;;;;;;5050758;28;20041;-65
2022/04/17 12:02:12;;;;;;;6.00;4.07;;;;;;;;;;5033343;28;20499;-65
2022/04/17 12:04:38;;;;;;;6.57;4.50;;;;;;;;;;5051265;28;20048;-65
2022/04/17 12:07:05;;;;;;;8.90;5.18;;;;;;;;;;5067195;28;20036;-65
2022/04/17 12:09:31;;;;;;;6.35;4.45;;;;;;;;;;5066814;28;20123;-65
2022/04/17 12:11:57;;;;;;;6.00;4.07;;;;;;;;;;5062445;28;20045;-65
2022/04/17 12:14:31;;;;;;;7.95;4.25;;;;;;;;;;5069207;28;20095;-65
2022/04/17 12:16:57;;;;;;;5.55;4.00;;;;;;;;;;5069068;28;20060;-65
2022/04/17 12:19:25;;;;;;;6.55;3.95;;;;;;;;;;5067727;28;20044;-65
2022/04/17 12:21:51;;;;;;;5.72;3.80;;;;;;;;;;5049806;28;20950;-65
2022/04/17 12:24:18;;;;;;;5.72;3.88;;;;;;;;;;5050777;28;20388;-65
2022/04/17 12:26:46;;;;;;;6.18;4.05;;;;;;;;;;5064305;28;20044;-65
2022/04/17 12:29:12;;;;;;;5.40;3.83;;;;;;;;;;5066883;28;20036;-65
2022/04/17 12:31:38;;;;;;;8.65;4.28;;;;;;;;;;5066190;28;20121;-65
2022/04/17 12:34:13;;;;;;;6.95;3.97;;;;;;;;;;5067724;28;20036;-65
2022/04/17 12:36:42;;;;;;;6.65;3.95;;;;;;;;;;5065824;28;20056;-65
2022/04/17 12:39:09;;;;;;;7.80;3.92;;;;;;;;;;5066802;28;20092;-65
2022/04/17 12:41:40;;;;;;;5.68;3.45;;;;;;;;;;5049179;28;20111;-66
2022/04/17 12:44:07;;;;;;;7.28;3.38;;;;;;;;;;5048216;28;20059;-65
2022/04/17 12:46:33;;;;;;;7.80;4.13;;;;;;;;;;5048869;28;20055;-65
2022/04/17 12:49:02;;;;;;;6.43;3.70;;;;;;;;;;5044870;28;20044;-65
2022/04/17 12:51:28;;;;;;;6.28;3.60;;;;;;;;;;5066829;28;20052;-65
2022/04/17 12:53:54;;;;;;;11.45;4.07;;;;;;;;;;5046645;28;20123;-65
2022/04/17 12:56:25;;;;;;;6.55;3.45;;;;;;;;;;5068015;28;20044;-65
2022/04/17 12:58:58;;;;;;;5.30;3.88;;;;;;;;;;5064090;28;20036;-65
2022/04/17 13:01:24;;;;;;;6.43;3.35;;;;;;;;;;5066874;28;20051;-65
2022/04/17 13:03:51;;;;;;;6.53;3.38;;;;;;;;;;5067599;28;20036;-65
2022/04/17 13:06:21;;;;;;;7.93;3.10;;;;;;;;;;5067434;28;20055;-65
2022/04/17 13:09:06;;;;;;;4.75;3.20;;;;;;;;;;5066410;28;20115;-65
2022/04/17 13:11:33;;;;;;;4.85;3.35;;;;;;;;;;5067873;28;20040;-65
2022/04/17 13:14:02;;;;;;;5.15;3.40;;;;;;;;;;5067311;28;20158;-65
2022/04/17 13:16:29;;;;;;;10.80;3.40;;;;;;;;;;5068451;28;20044;-65
2022/04/17 13:18:55;;;;;;;5.15;3.20;;;;;;;;;;5049592;28;20048;-65
2022/04/17 13:21:21;;;;;;;7.53;3.42;;;;;;;;;;5049705;28;20044;-65
2022/04/17 13:23:47;;;;;;;8.95;3.42;;;;;;;;;;5067636;28;20078;-65
2022/04/17 13:26:15;;;;;;;5.65;4.25;;;;;;;;;;5043168;28;20036;-65
2022/04/17 13:28:41;;;;;;;8.05;3.95;;;;;;;;;;5063193;28;20534;-66
2022/04/17 13:31:07;;;;;;;5.38;3.35;;;;;;;;;;5067075;28;20055;-65
2022/04/17 13:33:34;;;;;;;6.00;3.17;;;;;;;;;;5066705;28;20496;-65
2022/04/17 13:36:01;;;;;;;5.60;2.67;;;;;;;;;;5066085;28;20066;-65
2022/04/17 13:38:29;;;;;;;5.68;2.75;;;;;;;;;;5066947;28;20511;-65
2022/04/17 13:40:55;;;;;;;3.90;2.47;;;;;;;;;;5048304;28;20434;-65
2022/04/17 13:43:22;;;;;;;6.93;2.60;;;;;;;;;;5047927;28;20048;-65
2022/04/17 13:45:48;;;;;;;7.03;3.30;;;;;;;;;;5067059;28;20466;-64
2022/04/17 13:48:15;;;;;;;4.88;2.63;;;;;;;;;;5066052;28;20036;-65
2022/04/17 13:50:41;;;;;;;4.55;2.97;;;;;;;;;;5047135;28;20083;-65
2022/04/17 13:53:07;;;;;;;4.60;2.70;;;;;;;;;;5065671;28;20479;-65
2022/04/17 13:55:35;;;;;;;5.68;3.33;;;;;;;;;;5043064;28;20055;-65
2022/04/17 13:58:02;;;;;;;5.63;2.90;;;;;;;;;;5047479;28;20052;-65
2022/04/17 14:00:28;;;;;;;6.25;3.45;;;;;;;;;;5044572;28;20124;-65
2022/04/17 14:02:54;;;;;;;4.60;2.70;;;;;;;;;;5061704;28;20048;-65
2022/04/17 14:05:21;;;;;;;4.55;2.80;;;;;;;;;;5065607;28;20078;-65
2022/04/17 14:07:48;;;;;;;6.60;3.03;;;;;;;;;;5048106;28;20044;-65
2022/04/17 14:10:14;;;;;;;6.28;3.63;;;;;;;;;;5064784;28;20041;-65
2022/04/17 14:12:40;;;;;;;5.80;3.17;;;;;;;;;;5043794;28;20052;-65
2022/04/17 14:15:07;;;;;;;17.20;4.40;;;;;;;;;;5066230;28;20048;-65
2022/04/17 14:17:33;;;;;;;7.32;3.20;;;;;;;;;;5065492;28;20404;-65
2022/04/17 14:20:00;;;;;;;6.05;3.60;;;;;;;;;;5041968;28;20132;-65
2022/04/17 14:22:26;;;;;;;5.38;3.20;;;;;;;;;;5047748;28;20052;-65
2022/04/17 14:24:52;;;;;;;6.30;2.72;;;;;;;;;;5062015;28;20045;-65
2022/04/17 14:27:19;;;;;;;5.07;3.20;;;;;;;;;;5062568;28;20341;-65
2022/04/17 14:29:46;;;;;;;6.57;3.47;;;;;;;;;;5065112;28;20048;-65
2022/04/17 14:32:12;;;;;;;6.85;3.28;;;;;;;;;;5042608;28;20507;-65
2022/04/17 14:34:38;;;;;;;5.90;3.65;;;;;;;;;;5065454;28;20888;-65
2022/04/17 14:37:05;;;;;;;5.60;3.55;;;;;;;;;;5065469;28;20120;-65
2022/04/17 14:39:31;;;;;;;5.50;3.00;;;;;;;;;;5064824;28;20360;-65
2022/04/17 14:41:58;;;;;;;5.93;3.42;;;;;;;;;;5066692;28;20040;-65
2022/04/17 14:44:24;;;;;;;4.57;3.10;;;;;;;;;;5065930;28;20105;-65
2022/04/17 14:46:50;;;;;;;4.68;3.13;;;;;;;;;;5065619;28;20265;-65
2022/04/17 14:49:16;;;;;;;5.20;3.25;;;;;;;;;;5066188;28;20484;-65
2022/04/17 14:51:42;;;;;;;5.35;3.00;;;;;;;;;;5067581;28;20472;-65
2022/04/17 14:54:12;;;;;;;5.15;3.60;;;;;;;;;;5069042;28;20052;-65